createdAt,value
2022-08-02T00:02:28.726Z,0.43
2022-08-02T00:07:40.693Z,1.29
2022-08-02T00:12:42.409Z,0.86
2022-08-02T00:17:49.511Z,0.52
2022-08-02T00:22:56.471Z,1.44
2022-08-02T00:28:03.620Z,0.47
2022-08-02T00:33:10.575Z,0.45
2022-08-02T00:38:17.702Z,0.95
2022-08-02T00:43:24.611Z,0.59
2022-08-02T00:48:31.612Z,0.91
2022-08-02T00:53:38.260Z,0.76
2022-08-02T00:58:45.462Z,2.21
2022-08-02T01:03:52.424Z,0.81
2022-08-02T01:08:59.600Z,0.63
2022-08-02T01:14:06.548Z,1.21
2022-08-02T01:19:16.023Z,0.65
2022-08-02T01:24:20.145Z,0.71
2022-08-02T01:29:27.106Z,0.74
2022-08-02T01:34:34.320Z,0.75
2022-08-02T01:39:41.265Z,0.98
2022-08-02T01:44:48.257Z,0.53
2022-08-02T01:49:55.173Z,0.65
2022-08-02T01:55:02.182Z,1.21
2022-08-02T02:00:09.123Z,0.57
2022-08-02T02:05:16.291Z,2.23
2022-08-02T02:10:23.212Z,1.68
2022-08-02T02:15:30.212Z,0.93
2022-08-02T02:20:37.177Z,0.61
2022-08-02T02:25:46.577Z,1.14
2022-08-02T02:30:50.727Z,2.14
2022-08-02T02:35:57.744Z,0.58
2022-08-02T02:41:04.724Z,1.04
2022-08-02T02:46:11.757Z,1.47
2022-08-02T02:51:18.762Z,3.69
2022-08-02T02:56:25.841Z,1.91
2022-08-02T03:01:55.884Z,3.08
2022-08-02T03:06:39.387Z,1.30
2022-08-02T03:11:46.429Z,0.88
2022-08-02T03:16:53.518Z,1.04
2022-08-02T03:22:00.419Z,1.02
2022-08-02T03:27:07.521Z,2.30
2022-08-02T03:32:14.668Z,1.38
2022-08-02T03:37:21.460Z,4.05
2022-08-02T03:42:28.401Z,1.69
2022-08-02T03:47:35.492Z,2.00
2022-08-02T03:52:42.423Z,1.20
2022-08-02T03:57:49.490Z,1.68
2022-08-02T04:02:56.450Z,1.90
2022-08-02T04:08:35.708Z,1.37
2022-08-02T04:13:10.040Z,2.60
2022-08-02T04:18:17.333Z,5.18
2022-08-02T04:23:24.269Z,2.76
2022-08-02T04:28:30.788Z,3.45
2022-08-02T04:33:37.754Z,2.58
2022-08-02T04:38:44.870Z,2.64
2022-08-02T04:43:51.821Z,1.70
2022-08-02T04:48:58.832Z,1.28
2022-08-02T04:54:09.935Z,2.55
2022-08-02T04:59:12.332Z,2.74
2022-08-02T05:04:19.238Z,2.28
2022-08-02T05:09:26.182Z,3.01
2022-08-02T05:14:33.119Z,5.52
2022-08-02T05:19:40.134Z,6.83
2022-08-02T05:24:46.597Z,1.82
2022-08-02T05:29:53.938Z,1.84
2022-08-02T05:35:00.645Z,1.90
2022-08-02T05:40:12.553Z,1.09
2022-08-02T05:45:14.226Z,0.63
2022-08-02T05:50:21.347Z,0.85
2022-08-02T05:55:27.798Z,2.04
2022-08-02T06:00:34.965Z,0.63
2022-08-02T06:05:41.963Z,0.71
2022-08-02T06:10:49.194Z,0.60
2022-08-02T06:15:56.374Z,1.03
2022-08-02T06:22:31.969Z,0.91
2022-08-02T06:26:10.229Z,0.70
2022-08-02T06:31:17.219Z,1.22
2022-08-02T06:36:24.377Z,0.86
2022-08-02T06:41:31.334Z,1.10
2022-08-02T06:47:11.112Z,2.40
2022-08-02T06:51:44.932Z,1.03
2022-08-02T06:56:52.067Z,1.52
2022-08-02T07:01:59.092Z,0.65
2022-08-02T07:07:06.146Z,0.53
2022-08-02T07:12:13.468Z,0.78
2022-08-02T07:17:19.669Z,0.91
2022-08-02T07:22:26.680Z,0.60
2022-08-02T07:27:33.703Z,0.62
2022-08-02T07:32:40.625Z,1.36
2022-08-02T07:37:55.388Z,2.39
2022-08-02T07:42:57.889Z,0.72
2022-08-02T07:48:00.767Z,2.66
2022-08-02T07:53:07.766Z,1.16
2022-08-02T07:58:15.238Z,1.18
2022-08-02T08:03:22.200Z,3.50
2022-08-02T08:08:29.204Z,4.44
2022-08-02T08:13:36.291Z,0.99
2022-08-02T08:18:43.219Z,1.57
2022-08-02T08:23:50.155Z,2.68
2022-08-02T08:28:57.183Z,1.13
2022-08-02T08:34:04.165Z,1.71
2022-08-02T08:39:11.172Z,0.94
2022-08-02T08:44:18.102Z,1.73
2022-08-02T08:49:25.131Z,2.32
2022-08-02T08:54:32.015Z,1.78
2022-08-02T08:59:39.475Z,1.99
2022-08-02T09:04:52.951Z,0.95
2022-08-02T09:09:52.662Z,1.54
2022-08-02T09:14:59.634Z,1.37
2022-08-02T09:20:06.855Z,1.50
2022-08-02T09:25:13.847Z,1.14
2022-08-02T09:30:20.951Z,1.27
2022-08-02T09:35:27.890Z,2.20
2022-08-02T09:40:34.403Z,1.09
2022-08-02T09:45:41.428Z,2.01
2022-08-02T09:50:48.617Z,1.05
2022-08-02T09:55:55.549Z,1.72
2022-08-02T10:01:02.744Z,0.97
2022-08-02T10:06:09.660Z,1.89
2022-08-02T10:11:16.327Z,1.43
2022-08-02T10:16:23.556Z,1.68
2022-08-02T10:21:30.637Z,2.05
2022-08-02T10:26:37.613Z,1.60
2022-08-02T10:31:44.800Z,1.29
2022-08-02T10:36:51.754Z,3.53
2022-08-02T10:41:58.729Z,3.72
2022-08-02T10:47:05.877Z,2.65
2022-08-02T10:52:12.653Z,1.72
2022-08-02T10:57:18.838Z,0.68
2022-08-02T11:02:25.784Z,0.70
2022-08-02T11:07:32.869Z,1.45
2022-08-02T11:12:39.856Z,0.75
2022-08-02T11:17:46.925Z,1.67
2022-08-02T11:22:53.890Z,1.30
2022-08-02T11:28:01.014Z,1.93
2022-08-02T11:33:09.086Z,1.18
2022-08-02T11:38:16.176Z,1.59
2022-08-02T11:43:23.061Z,2.20
2022-08-02T11:48:30.000Z,2.70
2022-08-02T11:53:37.061Z,3.53
2022-08-02T11:58:44.042Z,2.15
2022-08-02T12:03:51.268Z,2.85
2022-08-02T12:08:58.145Z,4.11
2022-08-02T12:14:10.098Z,2.12
2022-08-02T12:19:07.036Z,3.82
2022-08-02T12:24:14.100Z,2.53
2022-08-02T12:29:57.675Z,3.56
2022-08-02T12:34:29.971Z,2.58
2022-08-02T12:39:34.243Z,2.89
2022-08-02T12:44:41.306Z,4.65
2022-08-02T12:49:48.314Z,7.83
2022-08-02T12:54:55.243Z,2.10
2022-08-02T13:00:02.204Z,2.98
2022-08-02T13:05:09.177Z,3.23
2022-08-02T13:10:16.302Z,3.19
2022-08-02T13:15:49.793Z,2.88
2022-08-02T13:20:30.071Z,2.24
2022-08-02T13:25:37.048Z,3.20
2022-08-02T13:30:44.174Z,3.10
2022-08-02T13:35:51.110Z,4.86
2022-08-02T13:41:04.381Z,5.23
2022-08-02T13:46:04.730Z,6.98
2022-08-02T13:51:11.859Z,3.28
2022-08-02T13:56:18.362Z,5.29
2022-08-02T14:01:25.480Z,3.51
2022-08-02T14:06:32.389Z,7.79
2022-08-02T14:11:39.625Z,7.55
2022-08-02T14:16:46.645Z,6.87
2022-08-02T14:21:53.634Z,4.89
2022-08-02T14:27:00.211Z,6.03
2022-08-02T14:32:07.216Z,6.69
2022-08-02T14:37:14.296Z,4.85
2022-08-02T14:42:20.779Z,6.27
2022-08-02T14:47:27.869Z,6.72
2022-08-02T14:52:34.850Z,4.16
2022-08-02T14:57:41.962Z,4.36
2022-08-02T15:02:48.908Z,6.13
2022-08-02T15:07:55.972Z,6.48
2022-08-02T15:13:02.952Z,4.99
2022-08-02T15:18:10.121Z,8.08
2022-08-02T15:23:17.104Z,6.60
2022-08-02T15:28:23.847Z,6.34
2022-08-02T15:33:30.814Z,5.47
2022-08-02T15:38:38.073Z,6.39
2022-08-02T15:44:00.976Z,7.19
2022-08-02T15:48:51.634Z,6.40
2022-08-02T15:53:58.640Z,7.43
2022-08-02T15:59:06.962Z,13.05
2022-08-02T16:04:13.954Z,16.43
2022-08-02T16:09:21.075Z,7.78
2022-08-02T16:14:28.037Z,15.30
2022-08-02T16:19:49.168Z,6.71
2022-08-02T16:24:41.614Z,9.52
2022-08-02T16:29:48.598Z,7.81
2022-08-02T16:35:07.602Z,7.79
2022-08-02T16:40:02.260Z,8.39
2022-08-02T16:45:09.185Z,6.42
2022-08-02T16:50:16.021Z,8.81
2022-08-02T16:55:22.413Z,6.83
2022-08-02T16:57:56.943Z,9.47
2022-08-02T17:03:13.386Z,7.91
2022-08-02T17:08:17.133Z,7.03
2022-08-02T17:13:16.174Z,5.84
2022-08-02T17:18:26.325Z,3.49
2022-08-02T17:23:47.077Z,7.01
2022-08-02T17:28:41.679Z,7.39
2022-08-02T17:33:43.369Z,6.01
2022-08-02T17:38:51.896Z,7.13
2022-08-02T17:43:56.982Z,5.66
2022-08-02T17:49:04.397Z,5.87
2022-08-02T17:54:11.459Z,3.79
2022-08-02T17:59:20.732Z,3.57
2022-08-02T18:04:27.758Z,3.85
2022-08-02T18:09:31.969Z,5.29
2022-08-02T18:14:46.076Z,4.99
2022-08-02T18:19:57.286Z,6.02
2022-08-02T18:24:52.135Z,5.44
2022-08-02T18:30:00.216Z,6.40
2022-08-02T18:35:05.611Z,7.09
2022-08-02T18:40:12.266Z,7.08
2022-08-02T18:45:19.785Z,10.21
2022-08-02T18:50:25.870Z,7.44
2022-08-02T18:55:59.171Z,7.81
2022-08-02T19:00:38.989Z,7.73
2022-08-02T19:05:52.114Z,7.69
2022-08-02T19:10:52.701Z,6.81
2022-08-02T19:15:59.698Z,6.06
2022-08-02T19:21:07.495Z,6.94
2022-08-02T19:26:13.572Z,5.01
2022-08-02T19:31:20.178Z,5.76
2022-08-02T19:36:27.126Z,4.31
2022-08-02T19:41:44.072Z,7.42
2022-08-02T19:46:41.505Z,4.78
2022-08-02T19:51:49.852Z,4.73
2022-08-02T19:56:53.936Z,4.38
2022-08-02T20:02:00.487Z,5.00
2022-08-02T20:07:07.447Z,3.27
2022-08-02T20:12:14.980Z,3.37
2022-08-02T20:17:21.199Z,2.74
2022-08-02T20:22:27.996Z,4.04
2022-08-02T20:27:35.202Z,3.42
2022-08-02T20:32:42.212Z,4.65
2022-08-02T20:38:01.009Z,2.78
2022-08-02T20:42:58.333Z,2.87
2022-08-02T20:48:05.586Z,2.21
2022-08-02T20:53:24.198Z,3.03
2022-08-02T20:58:18.842Z,1.97
2022-08-02T21:03:25.396Z,3.73
2022-08-02T21:08:32.110Z,1.33
2022-08-02T21:13:46.442Z,2.11
2022-08-02T21:18:45.540Z,1.81
2022-08-02T21:23:54.865Z,3.10
2022-08-02T21:29:01.001Z,2.94
2022-08-02T21:34:27.265Z,5.86
2022-08-02T21:39:12.561Z,2.25
2022-08-02T21:44:19.563Z,3.84
2022-08-02T21:49:40.582Z,3.72
2022-08-02T21:54:32.966Z,4.23
2022-08-02T21:59:39.738Z,4.69
2022-08-02T22:04:47.389Z,3.94
2022-08-02T22:09:52.901Z,3.78
2022-08-02T22:14:59.899Z,3.96
2022-08-02T22:20:06.906Z,3.98
2022-08-02T22:25:31.056Z,4.36
2022-08-02T22:30:20.582Z,4.74
2022-08-02T22:35:27.502Z,7.67
2022-08-02T22:40:34.125Z,9.77
2022-08-02T22:45:41.072Z,10.94
2022-08-02T22:50:48.155Z,13.33
2022-08-02T22:55:55.161Z,11.79
2022-08-02T23:01:02.290Z,14.74
2022-08-02T23:06:09.212Z,16.22
2022-08-02T23:11:16.325Z,19.76
2022-08-02T23:16:23.311Z,20.69
2022-08-02T23:22:01.116Z,19.92
2022-08-02T23:26:36.949Z,20.38
2022-08-02T23:31:44.159Z,24.74
2022-08-02T23:36:50.634Z,20.90
2022-08-02T23:41:57.693Z,21.61
2022-08-02T23:47:04.692Z,26.68
2022-08-02T23:52:11.867Z,32.20
2022-08-02T23:57:20.806Z,33.68
